logo
Search for airport 
image banner adimage banner adimage banner ad
image banner ad

FASAND - Sanddrift

Located in , South Africa

ICAO - , IATA -

Data provided by Airmate  

General information

Coordinates: S28°24'32" E16°46'48"
Elevation is 134 feet MSL.
 
View others Airports in Northern Cape

Operational data

Special qualification required
Current time UTC:
Current local time:
Weather at : FYOG - Oranjemund ( 38 km )
METAR: FYOG 180900Z AUTO 18007KT 9999 OVC004/// 13/13 Q1018
View NOTAMs / SUP AIP / TFR affecting this airport [VIEW]
Communications frequencies: [VIEW]

Runways:

RWY identifierQFULength (ft)Width (ft)SurfaceLDA (ft)
05165°328166SAND
23345°328166SAND

Airport contact information

Address: South Africa

Satellite view of FASAND